createdAt,value
2019-01-30T00:00:37.059Z,15.20
2019-01-30T00:03:05.884Z,17.35
2019-01-30T00:05:34.310Z,14.60
2019-01-30T00:08:02.765Z,17.70
2019-01-30T00:10:31.207Z,15.75
2019-01-30T00:12:59.679Z,18.35
2019-01-30T00:15:28.115Z,18.67
2019-01-30T00:17:56.862Z,17.60
2019-01-30T00:20:25.327Z,17.35
2019-01-30T00:22:53.799Z,16.27
2019-01-30T00:25:24.027Z,17.27
2019-01-30T00:27:52.643Z,15.20
2019-01-30T00:30:28.794Z,17.35
2019-01-30T00:32:57.277Z,14.87
2019-01-30T00:35:25.727Z,15.45
2019-01-30T00:37:54.162Z,14.47
2019-01-30T00:40:22.887Z,13.90
2019-01-30T00:42:51.331Z,12.47
2019-01-30T00:45:20.042Z,12.28
2019-01-30T00:47:48.777Z,14.78
2019-01-30T00:50:17.268Z,14.58
2019-01-30T00:52:46.043Z,14.83
2019-01-30T00:55:14.829Z,15.15
2019-01-30T00:57:43.261Z,14.55
2019-01-30T01:00:16.754Z,13.85
2019-01-30T01:02:45.189Z,12.68
2019-01-30T01:05:13.637Z,11.45
2019-01-30T01:07:42.105Z,13.55
2019-01-30T01:10:11.792Z,11.83
2019-01-30T01:12:40.546Z,12.15
2019-01-30T01:15:10.804Z,12.15
2019-01-30T01:17:39.542Z,14.05
2019-01-30T01:20:09.911Z,14.65
2019-01-30T01:22:38.372Z,17.50
2019-01-30T01:25:08.642Z,14.43
2019-01-30T01:27:37.113Z,15.15
2019-01-30T01:30:07.420Z,13.22
2019-01-30T01:32:35.871Z,14.18
2019-01-30T01:35:04.879Z,14.70
2019-01-30T01:37:33.328Z,13.10
2019-01-30T01:40:01.774Z,10.35
2019-01-30T01:42:30.220Z,12.73
2019-01-30T01:44:58.653Z,12.20
2019-01-30T01:47:27.364Z,12.50
2019-01-30T01:49:56.082Z,11.18
2019-01-30T01:52:24.533Z,11.57
2019-01-30T01:54:53.005Z,11.15
2019-01-30T01:57:21.459Z,10.72
2019-01-30T01:59:49.904Z,11.80
2019-01-30T02:02:18.366Z,11.10
2019-01-30T02:04:46.817Z,11.03
2019-01-30T02:07:15.248Z,11.08
2019-01-30T02:09:43.709Z,11.63
2019-01-30T02:12:12.180Z,12.55
2019-01-30T02:14:40.618Z,11.22
2019-01-30T02:17:09.069Z,11.43
2019-01-30T02:19:37.513Z,13.28
2019-01-30T02:22:06.308Z,11.38
2019-01-30T02:24:35.088Z,12.28
2019-01-30T02:27:03.534Z,12.37
2019-01-30T02:29:31.978Z,12.23
2019-01-30T02:32:00.457Z,12.82
2019-01-30T02:34:29.218Z,10.98
2019-01-30T02:36:57.939Z,11.57
2019-01-30T02:39:26.811Z,11.18
2019-01-30T02:41:55.503Z,11.93
2019-01-30T02:44:23.996Z,10.75
2019-01-30T02:46:53.052Z,11.25
2019-01-30T02:49:22.046Z,10.60
2019-01-30T02:51:50.716Z,11.90
2019-01-30T02:54:19.173Z,12.23
2019-01-30T02:56:47.969Z,12.33
2019-01-30T02:59:16.997Z,12.03
2019-01-30T03:04:41.002Z,9.93
2019-01-30T03:07:09.783Z,10.35
2019-01-30T03:09:38.222Z,9.93
2019-01-30T03:12:06.749Z,9.70
2019-01-30T03:14:35.508Z,10.28
2019-01-30T03:17:03.936Z,9.43
2019-01-30T03:19:32.676Z,9.70
2019-01-30T03:22:01.682Z,9.35
2019-01-30T03:24:30.136Z,9.60
2019-01-30T03:26:58.569Z,9.38
2019-01-30T03:29:27.261Z,9.95
2019-01-30T03:31:55.953Z,9.33
2019-01-30T03:34:24.702Z,9.00
2019-01-30T03:36:53.486Z,8.73
2019-01-30T03:39:22.329Z,8.73
2019-01-30T03:41:50.723Z,9.18
2019-01-30T03:44:19.174Z,9.93
2019-01-30T03:46:47.926Z,9.95
2019-01-30T03:49:16.371Z,8.83
2019-01-30T03:51:45.101Z,10.55
2019-01-30T03:54:13.569Z,10.15
2019-01-30T03:56:42.001Z,10.88
2019-01-30T03:59:11.153Z,9.98
2019-01-30T04:01:39.585Z,9.45
2019-01-30T04:04:08.316Z,9.33
2019-01-30T04:06:37.002Z,8.83
2019-01-30T04:09:07.274Z,9.15
2019-01-30T04:11:35.716Z,8.60
2019-01-30T04:14:04.185Z,9.20
2019-01-30T04:16:32.719Z,10.18
2019-01-30T04:19:01.451Z,10.48
2019-01-30T04:21:29.906Z,10.18
2019-01-30T04:23:58.359Z,10.08
2019-01-30T04:26:26.792Z,10.72
2019-01-30T04:28:55.582Z,11.53
2019-01-30T04:31:24.017Z,11.22
2019-01-30T04:33:52.463Z,11.30
2019-01-30T04:36:20.901Z,12.30
2019-01-30T04:38:49.701Z,12.35
2019-01-30T04:41:18.116Z,12.90
2019-01-30T04:43:46.975Z,11.88
2019-01-30T04:46:15.435Z,12.00
2019-01-30T04:48:43.864Z,12.68
2019-01-30T04:51:12.632Z,12.85
2019-01-30T04:53:41.625Z,11.93
2019-01-30T04:56:10.079Z,13.32
2019-01-30T04:58:38.787Z,12.63
2019-01-30T05:01:07.235Z,13.13
2019-01-30T05:03:35.955Z,13.90
2019-01-30T05:06:04.848Z,12.78
2019-01-30T05:08:33.360Z,13.15
2019-01-30T05:11:01.823Z,13.20
2019-01-30T05:13:30.910Z,13.38
2019-01-30T05:15:59.353Z,13.90
2019-01-30T05:18:28.064Z,13.32
2019-01-30T05:20:56.513Z,13.65
2019-01-30T05:23:24.951Z,13.70
2019-01-30T05:25:53.397Z,14.00
2019-01-30T05:28:22.091Z,14.00
2019-01-30T05:30:50.542Z,14.38
2019-01-30T05:33:19.317Z,14.65
2019-01-30T05:35:47.763Z,15.03
2019-01-30T05:38:16.206Z,16.65
2019-01-30T05:40:45.008Z,16.62
2019-01-30T05:43:13.446Z,18.25
2019-01-30T05:45:42.127Z,16.10
2019-01-30T05:48:10.862Z,16.10
2019-01-30T05:50:39.319Z,16.50
2019-01-30T05:53:08.044Z,16.90
2019-01-30T05:55:36.745Z,17.15
2019-01-30T05:58:05.513Z,16.95
2019-01-30T06:00:38.497Z,16.90
2019-01-30T06:03:07.298Z,17.27
2019-01-30T06:05:35.725Z,17.35
2019-01-30T06:08:04.184Z,16.35
2019-01-30T06:10:32.886Z,17.00
2019-01-30T06:13:01.604Z,17.35
2019-01-30T06:15:30.394Z,16.23
2019-01-30T06:17:59.183Z,17.07
2019-01-30T06:20:27.962Z,16.25
2019-01-30T06:22:56.852Z,15.78
2019-01-30T06:25:25.290Z,15.65
2019-01-30T06:27:53.867Z,14.15
2019-01-30T06:30:22.716Z,15.72
2019-01-30T06:32:51.138Z,16.85
2019-01-30T06:35:19.577Z,15.15
2019-01-30T06:37:48.045Z,15.23
2019-01-30T06:40:34.747Z,14.75
2019-01-30T06:43:03.589Z,15.28
2019-01-30T06:45:32.333Z,14.38
2019-01-30T06:48:01.096Z,15.00
2019-01-30T06:50:29.537Z,15.23
2019-01-30T06:52:57.986Z,14.60
2019-01-30T06:55:26.656Z,15.58
2019-01-30T06:57:55.450Z,14.38
2019-01-30T07:00:25.877Z,16.23
2019-01-30T07:02:54.976Z,15.15
2019-01-30T07:05:23.652Z,15.78
2019-01-30T07:07:52.358Z,15.90
2019-01-30T07:10:26.363Z,13.70
2019-01-30T07:12:55.143Z,14.13
2019-01-30T07:15:23.615Z,15.63
2019-01-30T07:17:52.063Z,15.05
2019-01-30T07:20:20.499Z,14.25
2019-01-30T07:22:49.271Z,14.70
2019-01-30T07:25:18.310Z,14.68
2019-01-30T07:27:46.765Z,15.05
2019-01-30T07:30:23.354Z,15.98
2019-01-30T07:32:51.900Z,17.60
2019-01-30T07:35:20.337Z,15.90
2019-01-30T07:37:49.068Z,15.40
2019-01-30T07:40:17.854Z,17.07
2019-01-30T07:42:46.541Z,15.40
2019-01-30T07:45:17.323Z,15.38
2019-01-30T07:47:45.761Z,15.45
2019-01-30T07:50:14.548Z,13.55
2019-01-30T07:52:43.008Z,14.47
2019-01-30T07:55:13.386Z,12.45
2019-01-30T07:57:42.141Z,14.33
2019-01-30T08:00:14.409Z,13.75
2019-01-30T08:02:52.628Z,12.33
2019-01-30T08:05:13.364Z,11.63
2019-01-30T08:07:41.801Z,12.28
2019-01-30T08:10:11.541Z,11.50
2019-01-30T08:12:40.604Z,11.03
2019-01-30T08:15:11.989Z,11.05
2019-01-30T08:17:40.430Z,11.90
2019-01-30T08:20:11.265Z,11.50
2019-01-30T08:22:41.403Z,12.50
2019-01-30T08:25:11.129Z,11.45
2019-01-30T08:27:40.867Z,11.90
2019-01-30T08:30:22.315Z,10.23
2019-01-30T08:32:44.261Z,11.08
2019-01-30T08:35:13.414Z,11.22
2019-01-30T08:37:41.887Z,11.10
2019-01-30T08:40:10.685Z,9.45
2019-01-30T08:42:39.124Z,12.43
2019-01-30T08:45:09.628Z,10.85
2019-01-30T08:47:38.380Z,10.28
2019-01-30T08:50:07.833Z,11.25
2019-01-30T08:52:36.268Z,9.80
2019-01-30T08:55:05.093Z,9.68
2019-01-30T08:57:33.531Z,9.28
2019-01-30T09:00:02.332Z,9.63
2019-01-30T09:02:31.102Z,9.18
2019-01-30T09:04:59.795Z,10.08
2019-01-30T09:07:28.224Z,9.13
2019-01-30T09:09:57.068Z,9.38
2019-01-30T09:12:25.499Z,10.13
2019-01-30T09:14:53.937Z,9.68
2019-01-30T09:17:22.703Z,9.08
2019-01-30T09:19:51.140Z,9.00
2019-01-30T09:22:19.880Z,9.03
2019-01-30T09:24:48.653Z,9.05
2019-01-30T09:27:18.371Z,9.65
2019-01-30T09:29:46.842Z,10.18
2019-01-30T09:32:15.283Z,9.85
2019-01-30T09:34:44.014Z,9.40
2019-01-30T09:37:12.477Z,8.98
2019-01-30T09:39:44.150Z,8.73
2019-01-30T09:42:12.933Z,9.30
2019-01-30T09:44:41.625Z,9.58
2019-01-30T09:47:10.350Z,8.70
2019-01-30T09:49:38.809Z,9.35
2019-01-30T09:52:07.231Z,8.88
2019-01-30T09:54:35.993Z,8.93
2019-01-30T09:57:04.405Z,9.15
2019-01-30T09:59:32.843Z,8.03
2019-01-30T10:02:01.302Z,8.85
2019-01-30T10:04:29.727Z,9.75
2019-01-30T10:06:58.463Z,9.30
2019-01-30T10:09:26.891Z,8.98
2019-01-30T10:11:55.343Z,8.90
2019-01-30T10:14:28.507Z,9.03
2019-01-30T10:16:57.362Z,8.78
2019-01-30T10:19:26.038Z,8.43
2019-01-30T10:21:54.505Z,9.15
2019-01-30T10:24:22.943Z,8.35
2019-01-30T10:26:51.584Z,8.10
2019-01-30T10:29:19.991Z,7.87
2019-01-30T10:31:48.699Z,8.50
2019-01-30T10:34:17.124Z,8.25
2019-01-30T10:36:45.597Z,8.43
2019-01-30T10:39:14.350Z,8.43
2019-01-30T10:41:43.137Z,8.30
2019-01-30T10:44:11.659Z,8.03
2019-01-30T10:46:40.260Z,9.08
2019-01-30T10:49:08.760Z,7.75
2019-01-30T10:51:37.473Z,8.40
2019-01-30T10:54:05.923Z,9.18
2019-01-30T10:56:34.633Z,8.70
2019-01-30T10:59:03.531Z,8.93
2019-01-30T11:01:31.986Z,8.63
2019-01-30T11:04:00.414Z,8.58
2019-01-30T11:06:28.846Z,8.53
2019-01-30T11:09:01.734Z,8.78
2019-01-30T11:14:22.157Z,8.53
2019-01-30T11:16:56.065Z,9.00
2019-01-30T11:19:24.662Z,8.40
2019-01-30T11:21:53.721Z,8.85
2019-01-30T11:24:22.143Z,8.00
2019-01-30T11:26:50.596Z,9.30
2019-01-30T11:29:19.398Z,8.55
2019-01-30T11:31:47.833Z,8.95
2019-01-30T11:34:16.283Z,8.60
2019-01-30T11:36:44.715Z,8.80
2019-01-30T11:39:13.174Z,9.08
2019-01-30T11:41:41.638Z,9.30
2019-01-30T11:44:10.092Z,8.58
2019-01-30T11:46:38.539Z,9.50
2019-01-30T11:49:07.241Z,8.80
2019-01-30T11:51:35.667Z,9.33
2019-01-30T11:54:04.128Z,9.40
2019-01-30T11:56:32.883Z,10.30
2019-01-30T11:59:01.680Z,8.40
2019-01-30T12:01:30.471Z,9.78
2019-01-30T12:03:58.906Z,9.83
2019-01-30T12:06:27.357Z,9.95
2019-01-30T12:08:55.817Z,9.98
2019-01-30T12:11:24.245Z,9.85
2019-01-30T12:13:52.985Z,9.70
2019-01-30T12:16:21.763Z,10.43
2019-01-30T12:18:50.227Z,10.30
2019-01-30T12:21:18.922Z,15.75
2019-01-30T12:23:47.501Z,11.97
2019-01-30T12:26:16.191Z,10.05
2019-01-30T12:28:44.704Z,9.10
2019-01-30T12:31:13.130Z,10.55
2019-01-30T12:33:41.599Z,9.53
2019-01-30T12:36:11.143Z,9.25
2019-01-30T12:38:39.930Z,9.78
2019-01-30T12:41:08.400Z,9.98
2019-01-30T12:43:37.203Z,10.95
2019-01-30T12:46:05.640Z,9.70
2019-01-30T12:48:34.364Z,9.68
2019-01-30T12:51:02.814Z,10.53
2019-01-30T12:53:31.264Z,10.78
2019-01-30T12:56:00.013Z,9.95
2019-01-30T12:58:28.798Z,10.63
2019-01-30T13:00:57.583Z,10.75
2019-01-30T13:03:26.377Z,10.68
2019-01-30T13:05:55.163Z,10.18
2019-01-30T13:08:23.954Z,11.28
2019-01-30T13:10:52.439Z,10.68
2019-01-30T13:13:20.874Z,10.18
2019-01-30T13:15:49.323Z,10.75
2019-01-30T13:18:18.736Z,10.08
2019-01-30T13:20:47.577Z,9.95
2019-01-30T13:23:16.027Z,10.60
2019-01-30T13:25:44.746Z,9.93
2019-01-30T13:28:13.183Z,9.45
2019-01-30T13:30:43.603Z,9.35
2019-01-30T13:33:11.855Z,9.20
2019-01-30T13:35:40.345Z,10.08
2019-01-30T13:38:08.778Z,10.18
2019-01-30T13:40:39.158Z,10.05
2019-01-30T13:43:10.083Z,9.40
2019-01-30T13:45:38.562Z,8.45
2019-01-30T13:48:12.752Z,9.98
2019-01-30T13:50:41.189Z,9.90
2019-01-30T13:53:14.366Z,9.83
2019-01-30T13:55:42.184Z,10.38
2019-01-30T13:58:10.663Z,11.73
2019-01-30T14:00:39.141Z,11.15
2019-01-30T14:03:08.290Z,10.82
2019-01-30T14:05:36.806Z,11.08
2019-01-30T14:08:06.989Z,10.05
2019-01-30T14:10:35.427Z,11.22
2019-01-30T14:13:04.609Z,10.48
2019-01-30T14:15:33.089Z,9.80
2019-01-30T14:18:01.563Z,10.80
2019-01-30T14:20:32.376Z,10.10
2019-01-30T14:23:00.861Z,9.78
2019-01-30T14:25:29.286Z,10.35
2019-01-30T14:28:01.689Z,9.95
2019-01-30T14:30:35.694Z,8.83
2019-01-30T14:33:04.407Z,9.65
2019-01-30T14:35:35.870Z,9.35
2019-01-30T14:38:04.362Z,8.83
2019-01-30T14:40:32.825Z,9.48
2019-01-30T14:43:01.228Z,9.70
2019-01-30T14:45:29.659Z,9.98
2019-01-30T14:47:58.361Z,9.83
2019-01-30T14:50:27.243Z,8.58
2019-01-30T14:52:55.973Z,9.00
2019-01-30T14:55:24.426Z,9.65
2019-01-30T14:57:53.136Z,9.90
2019-01-30T15:00:26.185Z,9.00
2019-01-30T15:02:54.628Z,9.20
2019-01-30T15:05:23.130Z,9.33
2019-01-30T15:07:51.702Z,8.75
2019-01-30T15:10:20.528Z,9.10
2019-01-30T15:12:49.018Z,9.08
2019-01-30T15:15:19.691Z,9.18
2019-01-30T15:17:48.453Z,8.40
2019-01-30T15:20:21.599Z,9.25
2019-01-30T15:22:50.028Z,9.18
2019-01-30T15:25:19.379Z,10.15
2019-01-30T15:27:47.852Z,9.28
2019-01-30T15:30:19.351Z,9.73
2019-01-30T15:32:48.144Z,10.13
2019-01-30T15:35:16.581Z,12.65
2019-01-30T15:37:45.718Z,10.23
2019-01-30T15:40:16.730Z,8.73
2019-01-30T15:42:49.407Z,10.32
2019-01-30T15:45:17.157Z,8.63
2019-01-30T15:47:45.618Z,8.23
2019-01-30T15:50:16.679Z,9.10
2019-01-30T15:52:45.426Z,8.05
2019-01-30T15:55:14.455Z,8.48
2019-01-30T15:57:43.909Z,8.65
2019-01-30T16:00:19.778Z,8.18
2019-01-30T16:02:48.878Z,9.05
2019-01-30T16:05:17.658Z,9.15
2019-01-30T16:07:46.106Z,8.50
2019-01-30T16:10:14.867Z,7.92
2019-01-30T16:12:44.410Z,9.05
2019-01-30T16:15:16.522Z,8.65
2019-01-30T16:20:12.972Z,8.33
2019-01-30T16:22:41.437Z,8.00
2019-01-30T16:25:09.896Z,8.85
2019-01-30T16:27:38.604Z,8.18
2019-01-30T16:30:10.696Z,9.55
2019-01-30T16:35:09.226Z,8.10
2019-01-30T16:37:37.947Z,8.05
2019-01-30T16:40:10.230Z,9.03
2019-01-30T16:42:38.682Z,8.63
2019-01-30T16:45:09.919Z,8.53
2019-01-30T16:47:40.050Z,8.83
2019-01-30T16:50:10.518Z,8.05
2019-01-30T16:52:38.994Z,8.35
2019-01-30T16:55:08.342Z,9.43
2019-01-30T16:57:37.115Z,7.72
2019-01-30T17:00:07.831Z,8.48
2019-01-30T17:02:36.284Z,7.65
2019-01-30T17:05:07.249Z,8.35
2019-01-30T17:07:35.696Z,9.15
2019-01-30T17:10:05.242Z,9.80
2019-01-30T17:12:33.960Z,9.28
2019-01-30T17:15:02.413Z,8.43
2019-01-30T17:17:31.039Z,8.38
2019-01-30T17:19:59.731Z,8.63
2019-01-30T17:22:28.170Z,9.15
2019-01-30T17:24:56.910Z,8.83
2019-01-30T17:27:25.323Z,8.68
2019-01-30T17:29:54.095Z,10.00
2019-01-30T17:32:22.764Z,8.95
2019-01-30T17:34:51.995Z,9.05
2019-01-30T17:37:20.942Z,9.55
2019-01-30T17:39:49.382Z,9.13
2019-01-30T17:42:18.120Z,9.45
2019-01-30T17:44:46.592Z,9.53
2019-01-30T17:47:15.885Z,9.53
2019-01-30T17:49:44.335Z,9.25
2019-01-30T17:52:12.773Z,9.95
2019-01-30T17:54:41.440Z,9.35
2019-01-30T17:57:09.998Z,10.45
2019-01-30T17:59:38.454Z,10.35
2019-01-30T18:02:09.267Z,9.95
2019-01-30T18:04:38.127Z,9.93
2019-01-30T18:07:06.568Z,10.50
2019-01-30T18:09:35.284Z,10.32
2019-01-30T18:12:06.248Z,10.05
2019-01-30T18:14:34.709Z,10.00
2019-01-30T18:17:03.913Z,10.13
2019-01-30T18:19:32.358Z,9.83
2019-01-30T18:22:01.032Z,10.25
2019-01-30T18:24:29.762Z,10.53
2019-01-30T18:26:58.218Z,10.10
2019-01-30T18:29:27.024Z,10.88
2019-01-30T18:31:55.824Z,9.88
2019-01-30T18:34:24.279Z,10.38
2019-01-30T18:36:52.716Z,10.60
2019-01-30T18:39:21.158Z,10.58
2019-01-30T18:41:49.603Z,10.63
2019-01-30T18:44:18.052Z,11.20
2019-01-30T18:46:46.803Z,11.65
2019-01-30T18:49:15.231Z,11.28
2019-01-30T18:51:44.168Z,10.98
2019-01-30T18:54:12.856Z,11.83
2019-01-30T18:56:41.341Z,11.83
2019-01-30T18:59:10.140Z,11.03
2019-01-30T19:01:38.700Z,11.65
2019-01-30T19:04:07.460Z,12.82
2019-01-30T19:06:35.966Z,12.90
2019-01-30T19:09:08.526Z,12.18
2019-01-30T19:11:40.083Z,13.25
2019-01-30T19:14:08.576Z,13.35
2019-01-30T19:16:37.557Z,13.22
2019-01-30T19:19:06.285Z,13.32
2019-01-30T19:21:34.854Z,12.25
2019-01-30T19:24:03.620Z,12.93
2019-01-30T19:26:32.904Z,11.68
2019-01-30T19:29:01.402Z,12.55
2019-01-30T19:31:29.896Z,13.22
2019-01-30T19:33:58.895Z,12.95
2019-01-30T19:36:27.762Z,12.55
2019-01-30T19:38:57.035Z,13.22
2019-01-30T19:41:26.034Z,13.10
2019-01-30T19:43:54.538Z,12.50
2019-01-30T19:46:23.118Z,12.85
2019-01-30T19:48:52.015Z,28.98
2019-01-30T19:51:20.622Z,12.63
2019-01-30T19:53:49.296Z,14.20
2019-01-30T19:56:18.765Z,14.00
2019-01-30T19:58:47.856Z,27.05
2019-01-30T20:01:16.442Z,15.38
2019-01-30T20:03:45.060Z,14.45
2019-01-30T20:06:13.707Z,15.00
2019-01-30T20:08:42.655Z,26.07
2019-01-30T20:11:11.660Z,14.00
2019-01-30T20:13:40.383Z,14.33
2019-01-30T20:16:09.508Z,14.30
2019-01-30T20:18:38.128Z,15.40
2019-01-30T20:21:07.390Z,15.15
2019-01-30T20:23:37.291Z,39.08
2019-01-30T20:26:05.975Z,19.55
2019-01-30T20:28:34.582Z,19.32
2019-01-30T20:33:37.850Z,39.78
2019-01-30T20:36:06.709Z,16.62
2019-01-30T20:38:35.242Z,17.90
2019-01-30T20:41:04.121Z,26.55
2019-01-30T20:43:32.719Z,17.27
2019-01-30T20:46:01.582Z,39.03
2019-01-30T20:48:30.070Z,23.10
2019-01-30T20:50:59.115Z,24.23
2019-01-30T20:53:27.718Z,44.23
2019-01-30T20:55:56.429Z,50.08
2019-01-30T20:58:24.934Z,50.50
2019-01-30T21:00:53.443Z,34.85
2019-01-30T21:03:22.344Z,44.63
2019-01-30T21:05:50.846Z,38.17
2019-01-30T21:08:20.073Z,36.65
2019-01-30T21:10:48.850Z,34.53
2019-01-30T21:13:17.655Z,43.58
2019-01-30T21:15:46.454Z,38.35
2019-01-30T21:18:18.009Z,48.92
2019-01-30T21:23:33.333Z,90.60
2019-01-30T21:26:01.782Z,27.32
2019-01-30T21:28:30.289Z,31.45
2019-01-30T21:30:58.943Z,28.15
2019-01-30T21:33:27.401Z,23.50
2019-01-30T21:35:55.865Z,33.10
2019-01-30T21:38:24.781Z,34.48
2019-01-30T21:40:53.285Z,31.97
2019-01-30T21:43:21.861Z,29.75
2019-01-30T21:45:50.342Z,33.48
2019-01-30T21:48:19.619Z,40.17
2019-01-30T21:50:48.195Z,29.90
2019-01-30T21:53:17.035Z,37.73
2019-01-30T21:55:48.539Z,24.65
2019-01-30T21:58:16.984Z,37.08
2019-01-30T22:00:45.523Z,36.20
2019-01-30T22:03:17.314Z,30.32
2019-01-30T22:05:45.791Z,30.08
2019-01-30T22:08:15.103Z,30.90
2019-01-30T22:10:43.678Z,35.80
2019-01-30T22:13:12.522Z,126.18
2019-01-30T22:15:41.292Z,31.07
2019-01-30T22:18:09.907Z,52.30
2019-01-30T22:20:38.455Z,64.47
2019-01-30T22:23:07.459Z,71.50
2019-01-30T22:25:35.948Z,78.83
2019-01-30T22:28:04.744Z,38.98
2019-01-30T22:30:36.604Z,42.85
2019-01-30T22:33:05.414Z,57.98
2019-01-30T22:35:34.215Z,59.13
2019-01-30T22:38:12.488Z,40.05
2019-01-30T22:40:36.725Z,46.88
2019-01-30T22:43:05.435Z,45.85
2019-01-30T22:45:34.018Z,38.95
2019-01-30T22:48:02.808Z,33.55
2019-01-30T22:50:31.399Z,31.23
2019-01-30T22:53:00.181Z,30.35
2019-01-30T22:55:28.816Z,31.40
2019-01-30T22:57:57.339Z,27.15
2019-01-30T23:01:03.613Z,33.20
2019-01-30T23:03:49.042Z,39.73
2019-01-30T23:06:47.473Z,35.73
2019-01-30T23:09:52.454Z,38.53
2019-01-30T23:12:44.956Z,58.30
2019-01-30T23:15:23.814Z,61.13
2019-01-30T23:18:09.395Z,55.33
2019-01-30T23:20:46.584Z,42.27
2019-01-30T23:23:57.119Z,89.97
2019-01-30T23:26:39.665Z,87.80
2019-01-30T23:29:21.365Z,90.95
2019-01-30T23:35:01.014Z,77.20
2019-01-30T23:37:52.715Z,41.80
2019-01-30T23:40:33.825Z,115.15
2019-01-30T23:44:04.591Z,56.20
2019-01-30T23:46:52.189Z,80.65
2019-01-30T23:49:42.074Z,79.27
2019-01-30T23:52:45.758Z,80.32
2019-01-30T23:55:44.990Z,64.47
2019-01-30T23:58:55.018Z,116.08
